Akiachak, AK (99551)

1:45 AM AKDT on August 30, 2014 (GMT -0800)
Kwethluk AP, Kwethluk, AK | Change Station
CLOSE
Current Station
Airport
Location: Kwethluk AP, Kwethluk, AK,
Elevation: 26 ft
Nearby Weather Stations

Elev 26 ft 60.79 °N, 161.44 °W | Updated 2 hours ago

Overcast
Overcast
46 °F
Feels Like 43 °F
N
7
Wind Variable Wind from NNE

Today
High -- | Low -- °F
--% Chance of Precip.
Yesterday
High -- | Low -- °F
Precip. -- in
7:33 AM 9:56 PM
Waxing Crescent, 20% visible
Pressure 29.75 in
Visibility 10.0 miles
Clouds Overcast 5500 ft
Windchill 43 °F
Dew Point 37 °F
Humidity 71%
Rainfall 0.00 in
Snow Depth Not available.
UV 0 out of 12
Pollen Not available.
Air Quality Not available.
Flu Activity Not available.
METAR PFKW 300656Z AUTO 03006KT 10SM OVC055 08/03 A2974 RMK AO2 SLP072 T0

More Conditions Fewer Conditions

Pressure 29.75 in
Visibility 10.0 miles
Clouds Overcast 5500 ft
Windchill 43 °F
Dew Point 37 °F
Humidity 71%
Rainfall 0.00 in
Snow Depth Not available.
UV 0 out of 12
Pollen Not available.
Air Quality Not available.
Flu Activity Not available.
METAR PFKW 300656Z AUTO 03006KT 10SM OVC055 08/03 A2974 RMK AO2 SLP072 T0

More Conditions Fewer Conditions

10-Day Weather Forecast

Almanac

Astronomy

Aug. 30, 2014 Rise Set
Actual Time 7:33 AM AKDT 9:56 PM AKDT
Civil Twilight 6:46 AM AKDT 10:43 PM AKDT
Nautical Twilight 5:44 AM AKDT 11:45 PM AKDT
Astronomical Twilight 4:15 AM AKDT 1:10 AM AKDT
Moon 2:03 PM AKDT 11:04 PM AKDT
Length of Visible Light 15h 56m
Length of Day
14h 22m
Tomorrow will be 5m 34s shorter.
Waxing Crescent, 20% of the Moon is Illuminated
Today
Waxing Crescent
Sep 2
First Quarter
Sep 8
Full
Sep 15
Last Quarter
Sep 24
New

Today's Extremes

State Highs State Lows

Community

WunderPhotos

Upload Photos

1,748,475 photos uploaded!

Nearby

Snow Depth

Station Depth Elevation
Rocky Point 5 in 500 ft
Mcneil Canyon 1 in 1320 ft
Port Graham 0 in 300 ft
MF Bradley River 2 in 2300 ft
Point Mackenzie 1 in 200 ft

Earthquake Activity

City Distance Mag. Time & Date
No recent earthquake activity has been reported nearby.
Minimum magnitude displayed is 2.5.

Coastal Water Temperatures

Place Temperature
No Stations Reporting

Nearby Weather Stations